Time;durP1;ratioP1;P1;durP2;ratioP2;P2;SDS_P1;SDS_P2;PMS_P1;PMS_P2;Temp;Humidity;BMP_temperature;BMP_pressure;BME280_temperature;BME280_humidity;BME280_pressure;Samples;Min_cycle;Max_cycle;Signal;HPM_P1;HPM_P2
2023/12/12 00:02:17;;;;;;;17.58;12.18;;;2.70;99.90;;;;;;5033794;28;20124;-80
2023/12/12 00:04:43;;;;;;;29.63;16.98;;;2.70;99.90;;;;;;5003859;28;20175;-79
2023/12/12 00:07:08;;;;;;;28.00;19.08;;;2.80;99.90;;;;;;4995001;28;20045;-79
2023/12/12 00:09:34;;;;;;;25.05;18.20;;;2.90;99.90;;;;;;4983309;28;20073;-79
2023/12/12 00:11:59;;;;;;;26.70;17.83;;;2.90;99.90;;;;;;5016954;28;20041;-79
2023/12/12 00:14:25;;;;;;;27.30;19.13;;;2.90;99.90;;;;;;5033451;28;20484;-79
2023/12/12 00:16:51;;;;;;;33.22;19.27;;;3.00;99.90;;;;;;5023872;28;20041;-79
2023/12/12 00:19:17;;;;;;;21.23;14.95;;;3.00;99.90;;;;;;5017349;28;20049;-79
2023/12/12 00:21:42;;;;;;;28.52;19.77;;;3.00;99.90;;;;;;5006071;28;20041;-79
2023/12/12 00:24:08;;;;;;;19.27;16.10;;;3.00;99.90;;;;;;5010516;28;20126;-79
2023/12/12 00:26:34;;;;;;;26.98;19.67;;;3.10;99.90;;;;;;4990146;28;20492;-79
2023/12/12 00:29:00;;;;;;;48.88;28.40;;;3.10;99.90;;;;;;5016874;28;20041;-79
2023/12/12 00:31:25;;;;;;;22.33;15.10;;;3.10;99.90;;;;;;5003566;28;20087;-79
2023/12/12 00:33:51;;;;;;;24.67;17.02;;;3.10;99.90;;;;;;5007550;28;20119;-79
2023/12/12 00:36:16;;;;;;;29.30;21.38;;;3.10;99.90;;;;;;5005039;28;20554;-79
2023/12/12 00:38:42;;;;;;;35.25;23.92;;;3.20;99.90;;;;;;4981089;28;20045;-80
2023/12/12 00:41:08;;;;;;;37.30;24.38;;;3.20;99.90;;;;;;4980810;28;20042;-79
2023/12/12 00:43:33;;;;;;;36.83;24.98;;;3.20;99.90;;;;;;4980618;28;20038;-79
2023/12/12 00:45:59;;;;;;;36.55;25.30;;;3.20;99.90;;;;;;5003205;28;20423;-79
2023/12/12 00:48:25;;;;;;;22.65;16.55;;;3.30;99.90;;;;;;5016352;28;20099;-79
2023/12/12 00:50:50;;;;;;;39.25;26.20;;;3.30;99.90;;;;;;5032953;28;20034;-79
2023/12/12 00:53:16;;;;;;;45.28;27.90;;;3.30;99.90;;;;;;5032668;28;20034;-79
2023/12/12 00:55:41;;;;;;;36.55;24.45;;;3.30;99.90;;;;;;5030838;28;20558;-80
2023/12/12 00:58:07;;;;;;;38.38;27.73;;;3.40;99.90;;;;;;4982655;28;20041;-79
2023/12/12 01:00:33;;;;;;;44.92;27.27;;;3.40;99.90;;;;;;5003711;28;20119;-80
2023/12/12 01:02:58;;;;;;;47.05;27.30;;;3.40;99.90;;;;;;5016015;28;20043;-79
2023/12/12 01:05:24;;;;;;;48.38;28.17;;;3.30;99.90;;;;;;5016386;28;20037;-79
2023/12/12 01:07:49;;;;;;;36.08;24.33;;;3.30;99.90;;;;;;5014750;28;20044;-79
2023/12/12 01:10:15;;;;;;;42.70;25.90;;;3.30;99.90;;;;;;4999794;28;20065;-80
2023/12/12 01:12:40;;;;;;;55.45;28.42;;;3.30;99.90;;;;;;4984745;28;20512;-79
2023/12/12 01:15:06;;;;;;;28.83;19.63;;;3.30;99.90;;;;;;5005596;28;20037;-79
2023/12/12 01:17:32;;;;;;;41.80;25.60;;;3.20;99.90;;;;;;5030868;28;20136;-79
2023/12/12 01:19:57;;;;;;;32.33;20.38;;;3.30;99.90;;;;;;5032846;28;20579;-80
2023/12/12 01:22:24;;;;;;;34.00;22.95;;;3.30;99.90;;;;;;5016050;28;20496;-80
2023/12/12 01:24:49;;;;;;;31.80;19.92;;;3.30;99.90;;;;;;5000035;28;20116;-80
2023/12/12 01:27:15;;;;;;;35.92;22.35;;;3.20;99.90;;;;;;5029826;28;20117;-79
2023/12/12 01:29:40;;;;;;;45.70;25.90;;;3.20;99.90;;;;;;5032104;28;20044;-79
2023/12/12 01:32:06;;;;;;;47.42;25.55;;;3.20;99.90;;;;;;5007961;28;20037;-79
2023/12/12 01:34:32;;;;;;;34.72;21.92;;;3.20;99.90;;;;;;5032099;28;20484;-79
2023/12/12 01:36:57;;;;;;;34.97;23.17;;;3.10;99.90;;;;;;4993625;28;20053;-79
2023/12/12 01:39:23;;;;;;;40.03;24.52;;;3.10;99.90;;;;;;4994790;28;20041;-79
2023/12/12 01:41:49;;;;;;;41.40;25.13;;;3.10;99.90;;;;;;4996680;28;20041;-79
2023/12/12 01:44:15;;;;;;;46.53;27.20;;;3.00;99.90;;;;;;4979398;28;20046;-79
2023/12/12 01:46:45;;;;;;;50.33;28.83;;;3.10;99.90;;;;;;4995793;28;20084;-79
2023/12/12 01:49:12;;;;;;;47.72;29.80;;;3.00;99.90;;;;;;4979572;28;20124;-79
2023/12/12 01:51:38;;;;;;;41.92;28.88;;;3.10;99.90;;;;;;4979576;28;20034;-79
2023/12/12 01:54:06;;;;;;;93.00;44.13;;;3.10;99.90;;;;;;4988922;28;20090;-79
2023/12/12 01:56:33;;;;;;;83.55;42.72;;;3.10;99.90;;;;;;5008484;28;20041;-79
2023/12/12 01:58:59;;;;;;;55.75;35.63;;;3.20;99.90;;;;;;4995645;28;20399;-79
2023/12/12 02:01:26;;;;;;;53.92;34.05;;;3.20;99.90;;;;;;4995585;28;20048;-80
2023/12/12 02:03:53;;;;;;;91.13;45.47;;;3.30;99.90;;;;;;4995235;28;20052;-79
2023/12/12 02:06:22;;;;;;;107.18;49.17;;;3.40;99.90;;;;;;4979206;28;20041;-80
2023/12/12 02:08:57;;;;;;;61.88;38.47;;;3.50;99.90;;;;;;4999079;28;20542;-79
2023/12/12 02:11:23;;;;;;;117.30;50.97;;;3.50;99.90;;;;;;5031306;28;20041;-80
2023/12/12 02:13:48;;;;;;;133.40;56.25;;;3.60;99.90;;;;;;5007527;28;20091;-79
2023/12/12 02:16:14;;;;;;;129.93;53.08;;;3.60;99.90;;;;;;5014768;28;20052;-79
2023/12/12 02:18:40;;;;;;;96.57;46.83;;;3.60;99.90;;;;;;5030312;28;20043;-79
2023/12/12 02:21:06;;;;;;;72.15;40.95;;;3.60;99.90;;;;;;4996092;28;20045;-79
2023/12/12 02:23:32;;;;;;;77.75;41.95;;;3.60;99.90;;;;;;5019274;28;20049;-79
2023/12/12 02:25:59;;;;;;;79.53;43.25;;;3.70;99.90;;;;;;5014911;28;20408;-79
2023/12/12 02:28:25;;;;;;;74.28;40.88;;;3.70;99.90;;;;;;4983838;28;20049;-79
2023/12/12 02:30:51;;;;;;;75.80;39.25;;;3.70;99.90;;;;;;4997646;28;20033;-79
2023/12/12 02:33:17;;;;;;;83.78;40.22;;;3.70;99.90;;;;;;4998017;28;20083;-79
2023/12/12 02:35:42;;;;;;;81.90;42.30;;;3.80;99.90;;;;;;5027828;28;20033;-79
2023/12/12 02:38:08;;;;;;;69.05;37.78;;;3.80;99.90;;;;;;5014266;28;20396;-79
2023/12/12 02:40:34;;;;;;;76.82;39.47;;;3.80;99.90;;;;;;4984697;28;20056;-80
2023/12/12 02:42:59;;;;;;;73.72;38.55;;;3.90;99.90;;;;;;4997915;28;20038;-80
2023/12/12 02:45:25;;;;;;;91.20;43.13;;;3.90;99.90;;;;;;4997238;28;20491;-79
2023/12/12 02:47:51;;;;;;;99.65;44.33;;;3.90;99.90;;;;;;5012550;28;20041;-79
2023/12/12 02:50:17;;;;;;;76.13;39.42;;;4.00;99.90;;;;;;5005188;28;20034;-79
2023/12/12 02:52:43;;;;;;;60.92;34.55;;;4.00;99.90;;;;;;5014160;28;20044;-79
2023/12/12 02:55:09;;;;;;;76.95;39.72;;;4.00;99.90;;;;;;5015737;28;20045;-79
2023/12/12 02:57:34;;;;;;;74.97;38.63;;;4.10;99.90;;;;;;4994456;28;20037;-79
2023/12/12 03:00:00;;;;;;;61.33;34.53;;;4.10;99.90;;;;;;5005566;28;20030;-79
2023/12/12 03:02:26;;;;;;;59.88;36.20;;;4.10;99.90;;;;;;5005834;28;20037;-80
2023/12/12 03:04:52;;;;;;;81.53;39.42;;;4.20;99.90;;;;;;5013783;28;20036;-79
2023/12/12 03:07:17;;;;;;;62.55;36.30;;;4.30;99.90;;;;;;5004322;28;20048;-80
2023/12/12 03:09:43;;;;;;;62.22;36.20;;;4.30;99.90;;;;;;4996549;28;20613;-79
2023/12/12 03:12:09;;;;;;;65.72;36.10;;;4.40;99.90;;;;;;5013969;28;20518;-80
2023/12/12 03:14:36;;;;;;;62.60;36.80;;;4.50;99.90;;;;;;5013042;28;20128;-79
2023/12/12 03:17:01;;;;;;;106.90;47.35;;;4.50;99.90;;;;;;5013841;28;20037;-80
2023/12/12 03:19:28;;;;;;;96.00;42.90;;;4.50;99.90;;;;;;5009116;28;20045;-80
2023/12/12 03:21:53;;;;;;;61.80;36.15;;;4.50;99.90;;;;;;4997576;28;20064;-79
2023/12/12 03:24:19;;;;;;;66.95;36.33;;;4.50;99.90;;;;;;4997641;28;20479;-80
2023/12/12 03:26:45;;;;;;;59.53;34.65;;;4.60;99.90;;;;;;5013781;28;20043;-80
2023/12/12 03:29:11;;;;;;;72.63;38.92;;;4.60;99.90;;;;;;5012760;28;20041;-80
2023/12/12 03:31:36;;;;;;;72.95;37.72;;;4.70;99.90;;;;;;4989667;28;20080;-79
2023/12/12 03:34:02;;;;;;;124.43;49.28;;;4.70;99.90;;;;;;5013366;28;20037;-79
2023/12/12 03:36:28;;;;;;;72.50;38.45;;;4.70;99.90;;;;;;5030375;28;20034;-80
2023/12/12 03:38:53;;;;;;;74.65;39.88;;;4.70;99.90;;;;;;5013097;28;20077;-79
2023/12/12 03:41:19;;;;;;;82.57;39.92;;;4.70;99.90;;;;;;5007866;28;20042;-79
2023/12/12 03:43:45;;;;;;;68.15;36.63;;;4.70;99.90;;;;;;4977683;28;20128;-79
2023/12/12 03:46:15;;;;;;;104.93;42.47;;;4.70;99.90;;;;;;4996621;28;20120;-79
2023/12/12 03:48:41;;;;;;;155.05;50.42;;;4.70;99.90;;;;;;5006346;28;20080;-79
2023/12/12 03:51:09;;;;;;;61.42;35.30;;;4.70;99.90;;;;;;5000447;28;20045;-80
2023/12/12 03:53:35;;;;;;;109.53;45.45;;;4.70;99.90;;;;;;5013432;28;20044;-80
2023/12/12 03:56:01;;;;;;;79.65;39.60;;;4.80;99.90;;;;;;5025120;28;20116;-79
2023/12/12 03:58:27;;;;;;;77.53;39.70;;;4.90;99.90;;;;;;5009028;28;20049;-80
2023/12/12 04:00:52;;;;;;;104.47;44.80;;;4.90;99.90;;;;;;4977647;28;20152;-79
2023/12/12 04:03:18;;;;;;;93.47;42.95;;;4.90;99.90;;;;;;4977768;28;20092;-80
2023/12/12 04:05:44;;;;;;;135.68;48.08;;;4.90;99.90;;;;;;4977726;28;20042;-79
2023/12/12 04:08:10;;;;;;;158.13;53.03;;;4.90;99.90;;;;;;4977740;28;20042;-79
2023/12/12 04:10:35;;;;;;;171.10;53.25;;;4.90;99.90;;;;;;5009897;28;20480;-79
2023/12/12 04:13:01;;;;;;;149.98;49.70;;;4.80;99.90;;;;;;5013399;28;20041;-80
2023/12/12 04:15:26;;;;;;;133.27;47.65;;;4.80;99.90;;;;;;5030191;28;20075;-79
2023/12/12 04:17:52;;;;;;;105.45;43.92;;;4.70;99.90;;;;;;4990866;28;20041;-79
2023/12/12 04:20:18;;;;;;;140.30;50.65;;;4.70;99.90;;;;;;4993209;28;20499;-79
2023/12/12 04:22:43;;;;;;;120.07;47.97;;;4.70;99.90;;;;;;5015021;28;20150;-80
2023/12/12 04:25:11;;;;;;;138.52;52.17;;;4.80;99.90;;;;;;5016751;28;20037;-79
2023/12/12 04:27:37;;;;;;;99.45;46.15;;;4.80;99.90;;;;;;5033290;28;20043;-79
2023/12/12 04:30:04;;;;;;;178.45;58.47;;;4.90;99.90;;;;;;4991976;28;20476;-79
2023/12/12 04:32:30;;;;;;;167.82;58.08;;;4.90;99.90;;;;;;4980931;28;20042;-79
2023/12/12 04:34:57;;;;;;;177.27;57.25;;;4.90;99.90;;;;;;4991105;28;20037;-79
2023/12/12 04:37:22;;;;;;;183.07;57.13;;;4.90;99.90;;;;;;5016773;28;20061;-79
2023/12/12 04:39:48;;;;;;;121.93;48.90;;;4.90;99.90;;;;;;4995835;28;20084;-79
2023/12/12 04:42:15;;;;;;;152.85;52.90;;;4.90;99.90;;;;;;4981158;28;20042;-80
2023/12/12 04:44:41;;;;;;;89.80;42.10;;;4.90;99.90;;;;;;4980832;28;20048;-79
2023/12/12 04:47:07;;;;;;;90.95;43.60;;;4.90;99.90;;;;;;4994162;28;20435;-80
2023/12/12 04:49:33;;;;;;;99.63;44.28;;;4.90;99.90;;;;;;5029183;28;20627;-80
2023/12/12 04:51:59;;;;;;;114.55;46.33;;;4.90;99.90;;;;;;5022970;28;20041;-79
2023/12/12 04:54:24;;;;;;;176.40;56.42;;;4.90;99.90;;;;;;4999926;28;20037;-79
2023/12/12 04:56:50;;;;;;;123.53;47.88;;;4.90;99.90;;;;;;5016392;28;20040;-82
2023/12/12 04:59:15;;;;;;;203.93;59.10;;;4.90;99.90;;;;;;4992769;28;20045;-79
2023/12/12 05:01:42;;;;;;;194.00;56.22;;;5.00;99.90;;;;;;5002533;28;20098;-81
2023/12/12 05:04:07;;;;;;;195.35;59.63;;;5.00;99.90;;;;;;5008865;28;20045;-79
2023/12/12 05:06:33;;;;;;;216.48;60.88;;;5.00;99.90;;;;;;5016115;28;20033;-80
2023/12/12 05:08:59;;;;;;;212.05;65.95;;;5.10;99.90;;;;;;5010714;28;20077;-79
2023/12/12 05:11:24;;;;;;;297.45;70.72;;;5.10;99.90;;;;;;5014938;28;20085;-80
2023/12/12 05:13:50;;;;;;;279.42;73.80;;;5.20;99.90;;;;;;5032222;28;20061;-80
2023/12/12 05:16:15;;;;;;;310.48;77.60;;;5.20;99.90;;;;;;5003764;28;20033;-79
2023/12/12 05:18:41;;;;;;;313.55;78.15;;;5.20;99.90;;;;;;5015627;28;20127;-80
2023/12/12 05:21:06;;;;;;;268.58;77.10;;;5.20;99.90;;;;;;5016189;28;20132;-79
2023/12/12 05:23:32;;;;;;;376.40;85.60;;;5.20;99.90;;;;;;4997728;28;20033;-80
2023/12/12 05:25:58;;;;;;;293.08;82.07;;;5.20;99.90;;;;;;5005495;28;20048;-79
2023/12/12 05:28:23;;;;;;;268.92;82.22;;;5.30;99.90;;;;;;5022956;28;20049;-79
2023/12/12 05:30:49;;;;;;;200.63;77.13;;;5.30;99.90;;;;;;4999866;28;20037;-82
2023/12/12 05:33:14;;;;;;;282.88;92.10;;;5.40;99.90;;;;;;4998529;28;20408;-82
2023/12/12 05:35:40;;;;;;;281.55;91.00;;;5.40;99.90;;;;;;4999828;28;20041;-82
2023/12/12 05:38:06;;;;;;;308.90;94.93;;;5.50;99.90;;;;;;4999886;28;20041;-82
2023/12/12 05:40:32;;;;;;;318.88;96.22;;;5.50;99.90;;;;;;5007120;28;20176;-81
2023/12/12 05:42:58;;;;;;;271.23;91.75;;;5.50;99.90;;;;;;5015026;28;20053;-80
2023/12/12 05:45:24;;;;;;;366.98;101.95;;;5.60;99.90;;;;;;5010066;28;20041;-82
2023/12/12 05:47:50;;;;;;;325.63;97.57;;;5.50;99.90;;;;;;4993242;28;20037;-83
2023/12/12 05:50:15;;;;;;;390.52;103.40;;;5.50;99.90;;;;;;5000182;28;20041;-83
2023/12/12 05:52:41;;;;;;;323.98;104.13;;;5.50;99.90;;;;;;4999620;28;20033;-83
2023/12/12 05:55:08;;;;;;;362.35;106.60;;;5.50;99.90;;;;;;5007725;28;20063;-83
2023/12/12 05:57:35;;;;;;;306.85;99.88;;;5.50;99.90;;;;;;5025110;28;20419;-83
2023/12/12 06:00:03;;;;;;;367.13;105.00;;;5.50;99.90;;;;;;5015670;28;20491;-83
2023/12/12 06:06:13;;;;;;;435.63;120.00;;;5.60;99.90;;;;;;5010298;28;20408;-83
2023/12/12 06:08:38;;;;;;;361.02;113.20;;;5.60;99.90;;;;;;5015752;28;20037;-83
2023/12/12 06:11:05;;;;;;;382.20;119.40;;;5.60;99.90;;;;;;5015592;28;20034;-83
2023/12/12 06:13:31;;;;;;;383.70;115.82;;;5.70;99.90;;;;;;5015515;28;20476;-83
2023/12/12 06:15:57;;;;;;;448.83;124.18;;;5.60;99.90;;;;;;5030609;28;20033;-83
2023/12/12 06:18:23;;;;;;;317.55;112.38;;;5.60;99.90;;;;;;5015627;28;20499;-83
2023/12/12 06:20:49;;;;;;;283.80;106.03;;;5.60;99.90;;;;;;5015468;28;20075;-83
2023/12/12 06:23:14;;;;;;;337.80;115.18;;;5.60;99.90;;;;;;5016121;28;20071;-84
2023/12/12 06:25:40;;;;;;;278.98;106.13;;;5.60;99.90;;;;;;5015405;28;20045;-84
2023/12/12 06:28:05;;;;;;;347.58;115.47;;;5.60;99.90;;;;;;5015454;28;20040;-83
2023/12/12 06:30:31;;;;;;;366.75;120.00;;;5.60;99.90;;;;;;5033016;28;20029;-84
2023/12/12 06:32:56;;;;;;;421.50;127.95;;;5.60;99.90;;;;;;5023136;28;20037;-84
2023/12/12 06:35:23;;;;;;;403.10;121.85;;;5.50;99.90;;;;;;5027588;28;20033;-83
2023/12/12 06:37:49;;;;;;;191.52;94.30;;;5.50;99.90;;;;;;5029971;28;20045;-84
2023/12/12 06:40:14;;;;;;;373.20;120.68;;;5.40;99.90;;;;;;5014959;28;20068;-84
2023/12/12 06:42:42;;;;;;;320.88;116.43;;;5.30;99.90;;;;;;5014986;28;20041;-83
2023/12/12 06:45:10;;;;;;;406.83;126.68;;;5.30;99.90;;;;;;5010812;28;20045;-83
2023/12/12 06:47:36;;;;;;;363.77;118.35;;;5.20;99.90;;;;;;4996772;28;20573;-84
2023/12/12 06:50:03;;;;;;;163.02;89.35;;;5.10;99.90;;;;;;5003314;28;20095;-84
2023/12/12 06:52:28;;;;;;;327.20;115.47;;;5.10;99.90;;;;;;5003657;28;20042;-83
2023/12/12 06:54:54;;;;;;;346.42;119.20;;;5.00;99.90;;;;;;5013298;28;20503;-84
2023/12/12 06:57:20;;;;;;;278.95;109.28;;;5.00;99.90;;;;;;5014971;28;20037;-84
2023/12/12 06:59:45;;;;;;;386.35;122.47;;;4.90;99.90;;;;;;5014496;28;20049;-84
2023/12/12 07:02:11;;;;;;;186.15;96.53;;;4.90;99.90;;;;;;4995182;28;20033;-84
2023/12/12 07:04:36;;;;;;;234.02;104.47;;;4.80;99.90;;;;;;5006862;28;20451;-83
2023/12/12 07:07:02;;;;;;;350.23;120.47;;;4.80;99.90;;;;;;5014735;28;20099;-83
2023/12/12 07:09:28;;;;;;;305.70;113.20;;;4.80;99.90;;;;;;5001340;28;20038;-83
2023/12/12 07:11:53;;;;;;;281.52;111.80;;;4.70;99.90;;;;;;5027277;28;20151;-83
2023/12/12 07:14:19;;;;;;;214.90;100.03;;;4.60;99.90;;;;;;5014549;28;20037;-83
2023/12/12 07:16:45;;;;;;;281.00;110.03;;;4.60;99.90;;;;;;5014206;28;20029;-83
2023/12/12 07:19:10;;;;;;;260.58;110.68;;;4.60;99.90;;;;;;5023667;28;20063;-83
2023/12/12 07:21:42;;;;;;;352.20;119.32;;;4.50;99.90;;;;;;5009847;28;20487;-83
2023/12/12 07:24:10;;;;;;;335.15;117.50;;;4.50;99.90;;;;;;5031070;28;20407;-83
2023/12/12 07:26:36;;;;;;;269.77;111.35;;;4.40;99.90;;;;;;4999811;28;20037;-84
2023/12/12 07:29:01;;;;;;;295.15;116.80;;;4.40;99.90;;;;;;5023977;28;20041;-83
2023/12/12 07:31:27;;;;;;;277.98;113.32;;;4.40;99.90;;;;;;5014524;28;20042;-83
2023/12/12 07:33:52;;;;;;;382.70;125.38;;;4.40;99.90;;;;;;5014385;28;20037;-83
2023/12/12 07:36:18;;;;;;;326.52;118.72;;;4.40;99.90;;;;;;5025280;28;20045;-83
2023/12/12 07:38:44;;;;;;;291.98;113.85;;;4.30;99.90;;;;;;5014245;28;20041;-83
2023/12/12 07:41:10;;;;;;;346.17;119.97;;;4.20;99.90;;;;;;5030657;28;20495;-83
2023/12/12 07:43:36;;;;;;;389.85;126.78;;;4.20;99.90;;;;;;5014418;28;20474;-83
2023/12/12 07:46:02;;;;;;;326.83;117.90;;;4.20;99.90;;;;;;5030726;28;20060;-84
2023/12/12 07:48:27;;;;;;;439.27;132.27;;;4.20;99.90;;;;;;5014189;28;20458;-83
2023/12/12 07:50:53;;;;;;;332.17;121.70;;;4.10;99.90;;;;;;5010432;28;20079;-83
2023/12/12 07:53:19;;;;;;;464.70;136.15;;;4.10;99.90;;;;;;5007839;28;20049;-83
2023/12/12 07:55:44;;;;;;;376.33;128.55;;;4.10;99.90;;;;;;5014507;28;20030;-84
2023/12/12 07:58:10;;;;;;;431.33;137.65;;;4.10;99.90;;;;;;5017803;28;20041;-83
2023/12/12 08:00:35;;;;;;;395.88;137.32;;;4.10;99.90;;;;;;5034459;28;20504;-83
2023/12/12 08:03:01;;;;;;;512.28;150.68;;;4.10;99.90;;;;;;5018112;28;20041;-84
2023/12/12 08:05:27;;;;;;;511.70;153.27;;;4.20;99.90;;;;;;5026990;28;20033;-83
2023/12/12 08:07:52;;;;;;;501.17;151.18;;;4.10;99.90;;;;;;5025755;28;20071;-82
2023/12/12 08:10:18;;;;;;;558.03;162.63;;;4.10;99.90;;;;;;5021016;28;20076;-83
2023/12/12 08:12:43;;;;;;;360.88;142.95;;;4.10;99.90;;;;;;5018309;28;20033;-83
2023/12/12 08:15:09;;;;;;;507.45;161.93;;;4.10;99.90;;;;;;5012708;28;20038;-84
2023/12/12 08:17:35;;;;;;;587.08;177.52;;;4.10;99.90;;;;;;4987143;28;20443;-83
2023/12/12 08:20:00;;;;;;;531.78;172.55;;;4.20;99.90;;;;;;5008557;28;20423;-83
2023/12/12 08:22:26;;;;;;;499.83;165.43;;;4.20;99.90;;;;;;5007918;28;20045;-82
2023/12/12 08:24:54;;;;;;;475.83;167.75;;;4.20;99.90;;;;;;5007660;28;20115;-80
2023/12/12 08:27:20;;;;;;;576.28;182.27;;;4.20;99.90;;;;;;5008793;28;20041;-80
2023/12/12 08:29:47;;;;;;;518.85;185.48;;;4.20;99.90;;;;;;5001859;28;20388;-82
2023/12/12 08:32:13;;;;;;;473.27;178.57;;;4.30;99.90;;;;;;5011637;28;20045;-80
2023/12/12 08:34:38;;;;;;;540.92;192.35;;;4.20;99.90;;;;;;5031384;28;20420;-78
2023/12/12 08:37:04;;;;;;;556.17;195.00;;;4.20;99.90;;;;;;5002433;28;20121;-78
2023/12/12 08:39:33;;;;;;;551.75;191.48;;;4.30;99.90;;;;;;5000425;28;20034;-78
2023/12/12 08:41:58;;;;;;;542.15;189.77;;;4.30;99.90;;;;;;5027178;28;20076;-80
2023/12/12 08:44:24;;;;;;;767.35;220.32;;;4.40;99.90;;;;;;5029672;28;20088;-80
2023/12/12 08:46:50;;;;;;;720.05;212.63;;;4.40;99.90;;;;;;5011564;28;20049;-80
2023/12/12 08:49:18;;;;;;;951.83;238.98;;;4.50;99.90;;;;;;5017486;28;20042;-82
2023/12/12 08:51:44;;;;;;;968.00;246.52;;;4.50;99.90;;;;;;5000881;28;20099;-81
2023/12/12 08:54:10;;;;;;;769.05;217.48;;;4.60;99.90;;;;;;4990703;28;20033;-82
2023/12/12 08:56:36;;;;;;;818.25;229.43;;;4.60;99.90;;;;;;5016781;28;20104;-80
2023/12/12 08:59:02;;;;;;;679.17;210.68;;;4.70;99.90;;;;;;5032920;28;20045;-80
2023/12/12 09:01:29;;;;;;;709.28;215.02;;;4.70;99.90;;;;;;5033284;28;20042;-80
2023/12/12 09:03:56;;;;;;;758.97;224.35;;;4.80;99.90;;;;;;5007189;28;20128;-81
2023/12/12 09:06:22;;;;;;;742.95;218.75;;;4.80;99.90;;;;;;5010645;28;20512;-80
2023/12/12 09:08:47;;;;;;;721.63;215.60;;;4.90;99.90;;;;;;5004617;28;20068;-80
2023/12/12 09:11:13;;;;;;;663.65;211.57;;;4.90;99.90;;;;;;5026795;28;20091;-81
2023/12/12 09:13:44;;;;;;;769.97;225.32;;;5.00;99.90;;;;;;5016319;28;20132;-80
2023/12/12 09:16:09;;;;;;;760.97;221.98;;;5.00;99.90;;;;;;4999311;28;20111;-80
2023/12/12 09:18:35;;;;;;;571.50;191.63;;;5.10;99.90;;;;;;4999638;28;20037;-80
2023/12/12 09:21:01;;;;;;;600.38;188.43;;;5.10;99.90;;;;;;4996967;28;20050;-80
2023/12/12 09:23:28;;;;;;;671.63;199.60;;;5.10;99.90;;;;;;5023950;28;20045;-80
2023/12/12 09:25:55;;;;;;;552.05;180.60;;;5.10;99.90;;;;;;5016379;28;20397;-80
2023/12/12 09:28:21;;;;;;;731.47;209.88;;;5.20;99.90;;;;;;4999515;28;20046;-81
2023/12/12 09:30:47;;;;;;;633.92;192.48;;;5.20;99.90;;;;;;4996531;28;20485;-80
2023/12/12 09:33:12;;;;;;;577.35;185.50;;;5.20;99.90;;;;;;4996037;28;20096;-80
2023/12/12 09:35:38;;;;;;;778.03;211.20;;;5.30;99.90;;;;;;4986979;28;20128;-80
2023/12/12 09:38:03;;;;;;;613.35;187.77;;;5.30;99.90;;;;;;5025718;28;20084;-80
2023/12/12 09:40:29;;;;;;;613.92;183.05;;;5.30;99.90;;;;;;5032262;28;20040;-80
2023/12/12 09:42:56;;;;;;;566.92;178.07;;;5.40;99.90;;;;;;5031927;28;20041;-80
2023/12/12 09:45:23;;;;;;;424.83;153.52;;;5.40;99.90;;;;;;5009915;28;20037;-80
2023/12/12 09:47:50;;;;;;;504.00;165.75;;;5.50;99.90;;;;;;5025290;28;20052;-80
2023/12/12 09:50:16;;;;;;;527.67;169.00;;;5.50;99.90;;;;;;5031997;28;20087;-80
2023/12/12 09:52:45;;;;;;;607.60;180.05;;;5.50;99.90;;;;;;5013470;28;20037;-81
2023/12/12 09:55:11;;;;;;;516.05;171.60;;;5.60;99.90;;;;;;5019521;28;20033;-80
2023/12/12 09:57:37;;;;;;;518.13;171.63;;;5.60;99.90;;;;;;5002278;28;20029;-80
2023/12/12 10:00:04;;;;;;;325.20;141.65;;;5.70;99.90;;;;;;5029085;28;20523;-80
2023/12/12 10:02:37;;;;;;;509.88;167.27;;;5.70;99.90;;;;;;5021139;28;20041;-80
2023/12/12 10:05:09;;;;;;;;;;;5.70;99.90;;;;;;5012507;28;20041;-81
2023/12/12 10:07:36;;;;;;;337.13;136.87;;;5.70;99.90;;;;;;4995235;28;20378;-80
2023/12/12 10:10:05;;;;;;;438.88;151.38;;;5.70;99.90;;;;;;5024271;28;20385;-80
2023/12/12 10:12:30;;;;;;;436.42;151.50;;;5.80;99.90;;;;;;5012652;28;20045;-81
2023/12/12 10:14:56;;;;;;;238.02;119.68;;;5.80;99.90;;;;;;4985552;28;20168;-80
2023/12/12 10:17:24;;;;;;;431.42;151.98;;;5.90;99.90;;;;;;4985581;28;20038;-80
2023/12/12 10:20:03;;;;;;;360.20;140.43;;;5.90;99.90;;;;;;5011477;28;20142;-80
2023/12/12 10:22:32;;;;;;;370.23;141.85;;;6.00;99.90;;;;;;5009840;28;20041;-81
2023/12/12 10:25:12;;;;;;;366.83;142.07;;;6.00;99.90;;;;;;5007313;28;20126;-81
2023/12/12 10:27:42;;;;;;;210.13;113.07;;;6.00;99.90;;;;;;5003695;28;20064;-81
2023/12/12 10:30:08;;;;;;;356.95;136.73;;;6.10;99.90;;;;;;5006071;28;20048;-79
2023/12/12 10:32:36;;;;;;;169.48;100.78;;;6.10;99.90;;;;;;5031430;28;20063;-80
2023/12/12 10:35:02;;;;;;;237.52;112.13;;;6.30;99.90;;;;;;5023113;28;20045;-80
2023/12/12 10:37:28;;;;;;;301.77;124.43;;;6.30;99.90;;;;;;5023784;28;20039;-80
2023/12/12 10:39:54;;;;;;;251.43;116.18;;;6.40;99.90;;;;;;5005931;28;20451;-80
2023/12/12 10:42:19;;;;;;;231.23;112.70;;;6.40;99.90;;;;;;5005523;28;20132;-80
2023/12/12 10:44:56;;;;;;;190.63;101.03;;;6.50;99.90;;;;;;4982794;28;20045;-80
2023/12/12 10:47:23;;;;;;;156.70;92.22;;;6.50;99.90;;;;;;5003771;28;20046;-80
2023/12/12 10:49:54;;;;;;;217.25;104.45;;;6.60;99.90;;;;;;4990696;28;20391;-80
2023/12/12 10:52:20;;;;;;;256.98;112.00;;;6.60;99.90;;;;;;5031187;28;20037;-81
2023/12/12 10:54:47;;;;;;;181.45;95.82;;;6.60;99.90;;;;;;5001977;28;20084;-81
2023/12/12 10:57:17;;;;;;;125.63;81.35;;;6.70;99.90;;;;;;5014219;28;20099;-81
2023/12/12 10:59:44;;;;;;;247.07;110.03;;;6.80;99.90;;;;;;5012695;28;20044;-81
2023/12/12 11:02:12;;;;;;;152.73;86.20;;;6.70;99.90;;;;;;5030740;28;20050;-80
2023/12/12 11:04:38;;;;;;;201.75;97.00;;;6.70;99.90;;;;;;4989806;28;20049;-80
2023/12/12 11:07:04;;;;;;;224.18;101.00;;;6.80;99.90;;;;;;5003260;28;20374;-81
2023/12/12 11:09:29;;;;;;;170.73;94.15;;;6.80;99.90;;;;;;5028588;28;20034;-80
2023/12/12 11:11:56;;;;;;;203.27;96.22;;;6.80;99.90;;;;;;4998137;28;20492;-80
2023/12/12 11:14:23;;;;;;;278.83;105.55;;;6.90;99.90;;;;;;5016156;28;20116;-80
2023/12/12 11:16:50;;;;;;;242.95;99.72;;;6.90;99.90;;;;;;5028751;28;20033;-81
2023/12/12 11:19:17;;;;;;;282.88;107.32;;;6.90;99.90;;;;;;5008596;28;20228;-80
2023/12/12 11:21:49;;;;;;;201.05;95.57;;;6.90;99.90;;;;;;4997125;28;20073;-80
2023/12/12 11:24:19;;;;;;;258.80;100.07;;;7.00;99.90;;;;;;5007816;28;20165;-81
2023/12/12 11:26:52;;;;;;;207.05;91.47;;;7.00;99.90;;;;;;4987502;28;20052;-80
2023/12/12 11:29:23;;;;;;;147.35;76.00;;;7.00;99.90;;;;;;4999528;28;20491;-80
2023/12/12 11:32:03;;;;;;;229.02;90.25;;;7.00;99.90;;;;;;5018427;28;20387;-79
2023/12/12 11:34:41;;;;;;;211.50;83.50;;;7.10;99.90;;;;;;5023527;28;20037;-80
2023/12/12 11:37:08;;;;;;;167.55;74.72;;;7.10;99.90;;;;;;5020513;28;20034;-80
2023/12/12 11:39:45;;;;;;;210.30;78.13;;;7.10;99.90;;;;;;5010773;28;20412;-80
2023/12/12 11:42:21;;;;;;;129.77;65.13;;;7.20;99.90;;;;;;5009224;28;20052;-80
2023/12/12 11:44:49;;;;;;;156.82;72.75;;;7.20;99.90;;;;;;5017397;28;20034;-80
2023/12/12 11:47:16;;;;;;;186.77;75.07;;;7.20;99.90;;;;;;4992192;28;20037;-80
2023/12/12 11:49:45;;;;;;;172.52;75.18;;;7.30;99.90;;;;;;5018868;28;20551;-80
2023/12/12 11:52:31;;;;;;;185.35;75.40;;;7.40;99.90;;;;;;5034222;28;20100;-80
2023/12/12 11:54:57;;;;;;;142.57;67.68;;;7.40;99.90;;;;;;5029442;28;20044;-80
2023/12/12 11:57:24;;;;;;;120.57;61.67;;;7.50;99.90;;;;;;5027188;22;20077;-74
2023/12/12 11:59:51;;;;;;;96.53;55.17;;;7.50;99.90;;;;;;4988684;28;20038;-73
2023/12/12 12:02:17;;;;;;;137.85;62.67;;;7.50;99.90;;;;;;4961739;28;20042;-73
2023/12/12 12:04:43;;;;;;;141.15;65.13;;;7.60;99.90;;;;;;4972448;28;20048;-74
2023/12/12 12:07:08;;;;;;;140.18;64.93;;;7.60;99.90;;;;;;4957780;28;20041;-76
2023/12/12 12:09:34;;;;;;;113.55;59.58;;;7.60;99.90;;;;;;4944992;28;20046;-75
2023/12/12 12:12:00;;;;;;;126.00;62.03;;;7.80;99.90;;;;;;4959005;28;20041;-76
2023/12/12 12:14:27;;;;;;;123.18;62.10;;;7.70;99.90;;;;;;4956981;28;20122;-76
2023/12/12 12:16:58;;;;;;;108.68;58.55;;;7.70;99.90;;;;;;4961923;28;20416;-76
2023/12/12 12:19:28;;;;;;;117.20;59.40;;;7.70;99.90;;;;;;4952573;28;20053;-76
2023/12/12 12:22:03;;;;;;;120.00;60.00;;;7.70;99.90;;;;;;4954687;28;20138;-76
2023/12/12 12:24:32;;;;;;;144.45;66.97;;;7.70;99.90;;;;;;4961792;28;20066;-77
2023/12/12 12:26:59;;;;;;;128.13;62.00;;;7.70;99.90;;;;;;4957739;28;20049;-76